Time;durP1;ratioP1;P1;durP2;ratioP2;P2;SDS_P1;SDS_P2;PMS_P1;PMS_P2;Temp;Humidity;BMP_temperature;BMP_pressure;BME280_temperature;BME280_humidity;BME280_pressure;Samples;Min_cycle;Max_cycle;Signal;HPM_P1;HPM_P2
2022/12/01 00:00:54;;;;;;;20.13;14.43;;;;;;;7.11;84.96;100865.66;10394353;28;20041;-61
2022/12/01 00:05:59;;;;;;;21.05;15.80;;;;;;;7.15;83.76;100879.59;10395011;28;20130;-61
2022/12/01 00:11:05;;;;;;;19.13;15.88;;;;;;;6.98;83.28;100876.09;10397542;28;20049;-61
2022/12/01 00:16:12;;;;;;;24.38;17.77;;;;;;;7.00;83.84;100878.66;10393493;28;20090;-60
2022/12/01 00:21:15;;;;;;;24.10;16.75;;;;;;;7.00;84.54;100887.44;10395400;28;20421;-61
2022/12/01 00:26:17;;;;;;;25.98;18.33;;;;;;;7.00;84.41;100882.16;10393305;28;20053;-61
2022/12/01 00:31:19;;;;;;;23.95;17.98;;;;;;;7.03;84.31;100891.72;10397375;28;20037;-61
2022/12/01 00:36:21;;;;;;;24.92;18.13;;;;;;;6.94;84.86;100890.44;10396016;28;20076;-61
2022/12/01 00:41:24;;;;;;;27.13;20.13;;;;;;;6.94;84.84;100895.72;10393190;28;20057;-61
2022/12/01 00:46:25;;;;;;;23.20;17.08;;;;;;;6.93;83.59;100888.72;10391048;28;20411;-61
2022/12/01 00:51:27;;;;;;;27.70;20.15;;;;;;;6.87;83.09;100900.47;10398596;28;20056;-62
2022/12/01 00:56:28;;;;;;;25.10;19.13;;;;;;;6.83;83.51;100898.09;10391355;28;20080;-60
2022/12/01 01:01:30;;;;;;;29.10;19.75;;;;;;;6.71;83.57;100889.03;10393736;28;20060;-61
2022/12/01 01:06:31;;;;;;;25.08;18.88;;;;;;;6.80;83.38;100895.63;10394306;28;20047;-62
2022/12/01 01:11:32;;;;;;;27.70;19.58;;;;;;;6.77;84.17;100904.59;10394162;28;20431;-61
2022/12/01 01:16:34;;;;;;;25.23;18.65;;;;;;;6.71;83.17;100889.91;10398088;28;20720;-62
2022/12/01 01:21:36;;;;;;;23.20;18.05;;;;;;;6.65;83.04;100899.94;10396048;28;20305;-62
2022/12/01 01:26:37;;;;;;;20.85;16.52;;;;;;;6.60;83.75;100913.41;10392909;28;20076;-61
2022/12/01 01:31:39;;;;;;;22.33;17.70;;;;;;;6.52;83.86;100899.75;10397302;28;20231;-60
2022/12/01 01:36:40;;;;;;;25.30;18.65;;;;;;;6.55;83.90;100904.88;10403819;28;20060;-61
2022/12/01 01:41:41;;;;;;;24.85;18.42;;;;;;;6.46;84.92;100881.56;10402933;28;20053;-61
2022/12/01 01:46:43;;;;;;;24.67;18.02;;;;;;;6.68;84.15;100920.94;10397195;28;20499;-61
2022/12/01 01:51:49;;;;;;;25.40;18.70;;;;;;;6.68;84.62;100927.09;10396384;28;20056;-61
2022/12/01 01:56:51;;;;;;;23.63;18.13;;;;;;;6.69;83.36;100928.78;10391323;28;20045;-61
2022/12/01 02:02:04;;;;;;;22.08;16.80;;;;;;;6.69;82.87;100934.09;10393677;28;20280;-60
2022/12/01 02:07:07;;;;;;;26.00;18.45;;;;;;;6.70;83.52;100929.66;10387694;28;20356;-64
2022/12/01 02:12:18;;;;;;;22.73;17.10;;;;;;;6.76;83.24;100934.63;10393269;28;20065;-60
2022/12/01 02:18:07;;;;;;;25.52;18.67;;;;;;;6.78;82.96;100922.16;10391442;28;20479;-60
2022/12/01 02:23:34;;;;;;;24.52;17.77;;;;;;;6.71;81.55;100926.06;10359329;28;20052;-60
2022/12/01 02:28:47;;;;;;;23.33;17.15;;;;;;;6.75;82.39;100929.41;10391432;28;20337;-61
2022/12/01 02:33:55;;;;;;;24.15;18.77;;;;;;;6.68;81.15;100923.59;10390570;28;20510;-61
2022/12/01 02:39:16;;;;;;;21.75;16.85;;;;;;;6.55;81.63;100904.88;10387551;28;20049;-61
2022/12/01 02:44:26;;;;;;;23.92;17.92;;;;;;;6.61;81.18;100915.13;10389888;28;20337;-60
2022/12/01 02:49:33;;;;;;;20.02;15.80;;;;;;;6.61;80.47;100925.72;10390233;28;20455;-61
2022/12/01 02:54:36;;;;;;;21.15;16.95;;;;;;;6.61;79.97;100925.72;10389852;28;20041;-62
2022/12/01 02:59:41;;;;;;;23.35;17.20;;;;;;;6.64;80.83;100924.72;10390945;28;20377;-61
2022/12/01 03:05:01;;;;;;;;;;;;;;;6.70;80.15;100922.56;10385966;28;20277;-61
2022/12/01 03:10:18;;;;;;;21.40;17.00;;;;;;;6.65;81.07;100927.28;10387150;28;19928;-61
2022/12/01 03:15:31;;;;;;;24.85;17.75;;;;;;;6.64;80.49;100914.97;10387602;28;20397;-61
2022/12/01 03:20:42;;;;;;;23.95;17.10;;;;;;;6.62;80.41;100922.16;10388692;28;20480;-60
2022/12/01 03:25:47;;;;;;;23.85;18.45;;;;;;;6.47;80.82;100891.19;10388570;28;20049;-61
2022/12/01 03:30:52;;;;;;;23.77;18.00;;;;;;;6.63;80.97;100913.25;10387813;28;20077;-61
2022/12/01 03:35:58;;;;;;;28.80;20.25;;;;;;;6.67;80.45;100898.09;10389466;28;20045;-60
2022/12/01 03:41:07;;;;;;;25.77;20.23;;;;;;;6.70;80.00;100904.06;10390493;28;20043;-59
2022/12/01 03:46:31;;;;;;;25.02;19.77;;;;;;;6.70;80.13;100913.78;10395553;28;20049;-60
2022/12/01 03:51:45;;;;;;;26.52;21.38;;;;;;;6.65;80.65;100916.69;10388239;28;20146;-61
2022/12/01 03:56:58;;;;;;;25.67;19.83;;;;;;;6.60;80.26;100933.72;10390243;28;20069;-62
2022/12/01 04:01:59;;;;;;;23.73;19.05;;;;;;;6.56;80.85;100927.75;10390126;28;20072;-60
2022/12/01 04:07:01;;;;;;;22.55;18.17;;;;;;;6.54;80.94;100930.50;10393474;28;20053;-60
2022/12/01 04:17:23;;;;;;;22.55;17.67;;;;;;;6.40;81.16;100929.50;10396001;28;20049;-61
2022/12/01 04:22:25;;;;;;;21.25;18.90;;;;;;;6.36;81.73;100916.44;10395212;28;20106;-61
2022/12/01 04:27:26;;;;;;;23.65;17.90;;;;;;;6.49;80.39;100931.66;10398994;28;21588;-61
2022/12/01 04:32:28;;;;;;;21.85;18.15;;;;;;;6.50;80.62;100936.88;10396589;28;20045;-62
2022/12/01 04:37:29;;;;;;;25.60;17.77;;;;;;;6.48;79.26;100936.06;10394863;28;20437;-62
2022/12/01 04:42:30;;;;;;;23.42;17.63;;;;;;;6.52;79.02;100936.78;10396455;28;20411;-60
2022/12/01 04:47:32;;;;;;;23.83;19.00;;;;;;;6.54;78.71;100934.91;10398760;28;20128;-61
2022/12/01 04:52:36;;;;;;;23.38;18.25;;;;;;;6.53;78.95;100933.19;10391323;28;20132;-61
2022/12/01 04:57:38;;;;;;;21.67;16.58;;;;;;;6.58;78.22;100925.88;10394809;28;20146;-61
2022/12/01 05:02:42;;;;;;;20.88;17.20;;;;;;;6.54;77.43;100919.03;10403676;28;20425;-60
2022/12/01 05:07:43;;;;;;;20.08;15.13;;;;;;;6.55;77.40;100928.69;10381166;28;20053;-60
2022/12/01 05:12:45;;;;;;;21.88;16.55;;;;;;;6.48;76.84;100922.00;10379565;28;20049;-60
2022/12/01 05:17:46;;;;;;;20.58;16.85;;;;;;;6.62;76.61;100934.50;10392266;28;20555;-61
2022/12/01 05:22:48;;;;;;;18.80;15.38;;;;;;;6.55;76.16;100932.19;10390014;28;20527;-61
2022/12/01 05:28:06;;;;;;;18.38;15.65;;;;;;;6.49;76.13;100935.16;10388353;28;21111;-60
2022/12/01 05:33:08;;;;;;;20.35;15.48;;;;;;;6.46;75.24;100937.97;10393335;28;20471;-62
2022/12/01 05:38:09;;;;;;;18.55;15.63;;;;;;;6.41;75.69;100955.00;10392998;28;20514;-61
2022/12/01 05:43:11;;;;;;;18.90;15.57;;;;;;;6.37;76.46;100928.72;10391696;28;20053;-60
2022/12/01 05:48:12;;;;;;;20.20;16.15;;;;;;;6.32;75.69;100930.75;10389917;28;20311;-60
2022/12/01 05:53:14;;;;;;;21.65;15.60;;;;;;;6.48;76.78;100946.66;10388574;28;20053;-62
2022/12/01 05:58:15;;;;;;;23.08;17.25;;;;;;;6.41;76.20;100955.00;10385365;28;20196;-62
2022/12/01 06:03:16;;;;;;;22.92;17.95;;;;;;;6.34;76.98;100951.81;10378477;28;20137;-63
2022/12/01 06:08:18;;;;;;;23.38;17.80;;;;;;;6.31;77.13;100950.19;10385448;28;20072;-62
2022/12/01 06:13:19;;;;;;;21.77;17.38;;;;;;;6.30;76.59;100947.63;10411917;28;20270;-61
2022/12/01 06:18:20;;;;;;;21.55;17.48;;;;;;;6.45;77.52;100961.84;10387079;28;20056;-62
2022/12/01 06:23:22;;;;;;;22.67;17.80;;;;;;;6.52;77.57;100958.78;10386408;28;20392;-61
2022/12/01 06:28:29;;;;;;;18.83;15.88;;;;;;;6.61;77.09;100972.50;10382904;28;20053;-62
2022/12/01 06:33:31;;;;;;;26.13;19.90;;;;;;;6.54;76.70;100977.22;10380731;28;20060;-61
2022/12/01 06:38:34;;;;;;;27.02;20.55;;;;;;;6.55;77.93;100979.78;10379316;28;21269;-61
2022/12/01 06:43:39;;;;;;;26.23;18.02;;;;;;;6.58;77.96;100983.22;10380450;28;20059;-60
2022/12/01 06:48:41;;;;;;;21.52;16.58;;;;;;;6.54;77.54;100990.47;10381264;28;20071;-61
2022/12/01 06:53:42;;;;;;;22.00;17.08;;;;;;;6.58;76.90;100989.38;10377092;28;20053;-61
2022/12/01 06:58:44;;;;;;;19.80;17.00;;;;;;;6.48;76.26;100993.41;10376912;28;21249;-60
2022/12/01 07:03:47;;;;;;;23.25;16.30;;;;;;;6.40;77.10;100987.69;10370136;28;20564;-59
2022/12/01 07:08:49;;;;;;;21.63;16.48;;;;;;;6.39;74.14;100988.63;10373066;28;20053;-62
2022/12/01 07:13:54;;;;;;;22.23;16.67;;;;;;;6.35;73.70;100991.41;10380852;28;20052;-61
2022/12/01 07:18:55;;;;;;;22.58;16.17;;;;;;;6.34;73.40;101010.00;10380427;28;20164;-63
2022/12/01 07:23:57;;;;;;;17.15;13.50;;;;;;;6.25;72.56;101007.84;10373495;28;20487;-60
2022/12/01 07:28:58;;;;;;;22.35;16.35;;;;;;;6.28;73.32;101008.53;10378592;28;20059;-62
2022/12/01 07:34:00;;;;;;;18.73;15.38;;;;;;;6.33;72.40;101021.50;10377997;28;20524;-62
2022/12/01 07:39:06;;;;;;;21.42;15.27;;;;;;;6.32;72.64;101025.06;10387612;28;20131;-63
2022/12/01 07:44:10;;;;;;;23.38;17.42;;;;;;;6.31;73.45;101011.00;10386561;28;20059;-62
2022/12/01 07:49:14;;;;;;;19.77;14.87;;;;;;;6.21;71.21;101017.69;10389169;28;20075;-60
2022/12/01 07:54:16;;;;;;;17.15;14.18;;;;;;;6.18;71.12;101036.34;10387879;28;20056;-61
2022/12/01 07:59:17;;;;;;;17.35;13.65;;;;;;;6.06;71.22;101021.09;10388104;28;20049;-60
2022/12/01 08:04:19;;;;;;;16.08;13.18;;;;;;;5.99;70.25;101025.81;10385506;28;20064;-61
2022/12/01 08:09:20;;;;;;;17.27;13.98;;;;;;;5.87;70.37;101029.91;10386072;28;20420;-61
2022/12/01 08:14:21;;;;;;;18.08;14.52;;;;;;;5.84;70.61;101043.28;10386109;28;20140;-60
2022/12/01 08:19:24;;;;;;;15.98;12.15;;;;;;;5.89;71.60;101048.31;10385194;28;20051;-61
2022/12/01 08:24:26;;;;;;;17.23;13.23;;;;;;;5.96;71.31;101055.88;10384348;28;20135;-59
2022/12/01 08:29:27;;;;;;;19.70;16.50;;;;;;;5.98;71.18;101053.19;10388086;28;20049;-60
2022/12/01 08:34:28;;;;;;;18.35;14.75;;;;;;;6.07;70.74;101049.25;10386795;28;20072;-60
2022/12/01 08:39:30;;;;;;;15.98;12.80;;;;;;;6.21;71.33;101053.84;10386905;28;20053;-60
2022/12/01 08:44:31;;;;;;;16.30;13.60;;;;;;;6.30;71.47;101038.38;10384878;28;20466;-60
2022/12/01 08:49:33;;;;;;;17.38;13.82;;;;;;;6.32;70.46;101041.81;10384965;28;20440;-59
2022/12/01 08:54:34;;;;;;;17.15;13.55;;;;;;;6.35;70.20;101052.25;10385521;28;20052;-60
2022/12/01 08:59:36;;;;;;;15.82;13.35;;;;;;;6.51;70.95;101059.38;10383823;28;20511;-61
2022/12/01 09:04:37;;;;;;;17.17;13.18;;;;;;;6.39;69.55;101045.00;10381737;28;20539;-60
2022/12/01 09:09:39;;;;;;;18.55;14.32;;;;;;;6.48;69.54;101056.91;10378962;28;20055;-61
2022/12/01 09:14:46;;;;;;;18.63;13.77;;;;;;;6.66;70.02;101055.09;10375759;28;20049;-60
2022/12/01 09:19:48;;;;;;;16.33;13.07;;;;;;;6.77;70.51;101054.53;10366286;28;20064;-61
2022/12/01 09:24:49;;;;;;;16.52;14.07;;;;;;;6.88;69.05;101054.88;10376882;28;21919;-61
2022/12/01 09:29:51;;;;;;;16.33;13.10;;;;;;;6.84;68.60;101043.56;10377483;28;20515;-61
2022/12/01 09:34:52;;;;;;;18.70;14.10;;;;;;;6.96;67.79;101067.69;10377119;28;20538;-61
2022/12/01 09:39:54;;;;;;;18.45;14.00;;;;;;;6.89;68.39;101053.91;10373025;28;20422;-61
2022/12/01 09:44:59;;;;;;;15.48;13.05;;;;;;;6.98;68.43;101057.88;10372493;28;20708;-62
2022/12/01 09:50:04;;;;;;;16.52;12.90;;;;;;;7.10;66.85;101048.44;10362379;28;20049;-63
2022/12/01 09:55:11;;;;;;;17.77;13.35;;;;;;;6.93;67.20;101025.50;10368220;28;20056;-62
2022/12/01 10:00:17;;;;;;;18.55;14.88;;;;;;;6.84;67.83;101034.78;10373851;28;20172;-60
2022/12/01 10:05:25;;;;;;;17.80;13.85;;;;;;;6.93;67.77;101021.06;10373315;28;20377;-60
2022/12/01 10:10:31;;;;;;;20.52;15.02;;;;;;;6.96;67.58;101026.19;10374792;28;20164;-62
2022/12/01 10:15:48;;;;;;;18.80;13.85;;;;;;;7.11;67.43;101013.06;10377993;28;20053;-61
2022/12/01 10:20:53;;;;;;;16.13;13.85;;;;;;;7.19;66.99;101005.56;10375366;28;20177;-62
2022/12/01 10:25:58;;;;;;;18.60;14.13;;;;;;;7.60;66.25;101002.44;10375646;28;20421;-60
2022/12/01 10:31:05;;;;;;;;;;;;;;;9.37;59.23;100975.97;10373751;28;20377;-61
2022/12/01 10:36:09;;;;;;;17.15;15.10;;;;;;;9.80;57.44;100993.56;10378077;28;20038;-61
2022/12/01 10:41:13;;;;;;;17.08;14.05;;;;;;;8.97;58.79;100998.88;10377145;28;20338;-60
2022/12/01 10:46:20;;;;;;;17.42;13.50;;;;;;;8.55;60.62;100989.94;10377215;28;20057;-60
2022/12/01 10:51:23;;;;;;;17.25;14.02;;;;;;;8.26;62.14;100987.19;10373466;28;20062;-60
2022/12/01 10:56:25;;;;;;;18.67;14.65;;;;;;;8.18;63.14;100985.00;10375679;28;20412;-60
2022/12/01 11:01:33;;;;;;;19.52;15.48;;;;;;;8.26;63.88;100979.22;10378196;28;20045;-60
2022/12/01 11:06:36;;;;;;;18.90;14.73;;;;;;;8.12;63.85;100980.91;10371698;28;20048;-62
2022/12/01 11:11:39;;;;;;;17.98;14.18;;;;;;;8.03;64.40;100973.47;10375565;28;20743;-61
2022/12/01 11:16:43;;;;;;;19.42;15.18;;;;;;;8.03;64.51;100969.97;10388734;28;20815;-62
2022/12/01 11:21:56;;;;;;;18.40;14.93;;;;;;;8.02;64.06;100962.97;10389316;28;20136;-61
2022/12/01 11:26:59;;;;;;;17.83;15.40;;;;;;;8.00;63.18;100965.72;10387412;28;20055;-62
2022/12/01 11:32:25;;;;;;;16.67;13.88;;;;;;;8.07;62.91;100969.69;10386335;28;20049;-63
2022/12/01 11:37:37;;;;;;;16.67;14.13;;;;;;;8.14;62.32;100957.78;10381700;28;20695;-61
2022/12/01 11:42:40;;;;;;;14.63;12.57;;;;;;;8.14;61.98;100943.69;10383907;28;20679;-63
2022/12/01 11:48:19;;;;;;;16.75;13.90;;;;;;;8.22;61.36;100948.53;10380636;28;20134;-63
2022/12/01 11:53:30;;;;;;;16.17;13.13;;;;;;;8.30;61.33;100954.19;10330080;28;20360;-61
2022/12/01 11:58:32;;;;;;;17.52;13.63;;;;;;;8.31;61.09;100947.97;10383690;28;20068;-64
2022/12/01 12:03:46;;;;;;;19.08;14.90;;;;;;;8.26;60.60;100931.50;10379436;28;20503;-61
2022/12/01 12:09:17;;;;;;;14.30;12.52;;;;;;;8.39;60.37;100951.03;10381449;28;20071;-61
2022/12/01 12:14:37;;;;;;;15.77;13.35;;;;;;;8.26;60.75;100929.69;10381972;28;20056;-61
2022/12/01 12:19:58;;;;;;;15.70;13.63;;;;;;;8.56;60.29;100925.31;10381338;28;20473;-60
2022/12/01 12:25:24;;;;;;;16.52;13.48;;;;;;;8.67;59.53;100933.44;10382371;28;21034;-61
2022/12/01 12:30:28;;;;;;;16.17;13.27;;;;;;;9.24;58.22;100927.22;10380860;28;20053;-60
2022/12/01 12:35:46;;;;;;;17.02;13.90;;;;;;;10.76;54.36;100896.66;10384605;28;20126;-61
2022/12/01 12:40:56;;;;;;;18.60;14.75;;;;;;;13.18;47.82;100914.88;10382282;28;20044;-62
2022/12/01 12:46:36;;;;;;;17.83;15.18;;;;;;;17.23;38.59;100890.50;10384739;28;20120;-63
2022/12/01 12:51:43;;;;;;;16.08;13.55;;;;;;;20.05;33.24;100898.09;10383182;28;20067;-62
2022/12/01 12:56:50;;;;;;;16.48;14.82;;;;;;;21.58;30.56;100899.78;10377757;28;20045;-61
2022/12/01 13:02:02;;;;;;;15.48;13.95;;;;;;;19.74;32.46;100905.00;10379094;28;20052;-60
2022/12/01 13:07:12;;;;;;;15.27;13.75;;;;;;;20.67;30.44;100892.06;10380118;28;20439;-59
2022/12/01 13:12:29;;;;;;;15.60;13.95;;;;;;;22.20;27.97;100894.16;10376510;28;20053;-60
2022/12/01 13:17:37;;;;;;;15.05;13.65;;;;;;;21.12;29.35;100895.97;10382108;28;20079;-61
2022/12/01 13:22:39;;;;;;;14.27;12.98;;;;;;;17.25;35.83;100908.19;10383784;28;20055;-63
2022/12/01 13:27:42;;;;;;;16.00;14.30;;;;;;;14.54;40.57;100895.56;10384926;28;20057;-61
2022/12/01 13:32:45;;;;;;;;;;;;;;;13.29;44.36;100888.13;10381953;28;20128;-62
2022/12/01 13:37:46;;;;;;;17.80;15.90;;;;;;;12.28;46.54;100879.22;10374548;28;22358;-62
2022/12/01 13:43:01;;;;;;;16.38;14.68;;;;;;;11.65;48.37;100887.50;10371786;28;20128;-62
2022/12/01 13:48:46;;;;;;;16.98;13.60;;;;;;;11.31;49.50;100892.66;10376500;28;20048;-62
2022/12/01 13:54:04;;;;;;;15.73;13.70;;;;;;;10.92;50.08;100889.28;10348991;28;20373;-61
2022/12/01 14:00:01;;;;;;;15.32;13.68;;;;;;;10.56;51.31;100885.59;10377483;28;20223;-60
2022/12/01 14:05:21;;;;;;;18.27;15.20;;;;;;;10.11;52.36;100889.63;10365180;28;20534;-59
2022/12/01 14:10:26;;;;;;;15.98;13.73;;;;;;;9.78;53.68;100883.81;10371754;28;21470;-60
2022/12/01 14:15:39;;;;;;;17.80;15.00;;;;;;;9.41;54.30;100886.25;10374343;28;20052;-61
2022/12/01 14:20:45;;;;;;;16.58;13.90;;;;;;;9.07;56.07;100892.91;10377507;28;20679;-62
2022/12/01 14:26:09;;;;;;;17.45;14.70;;;;;;;8.81;57.43;100882.13;10377052;28;20053;-61
2022/12/01 14:31:11;;;;;;;17.90;14.75;;;;;;;8.66;58.25;100873.34;10380541;28;20049;-62
2022/12/01 14:36:21;;;;;;;17.52;14.20;;;;;;;8.63;59.03;100869.09;10374807;28;20041;-61
2022/12/01 14:41:27;;;;;;;17.95;14.63;;;;;;;8.65;59.96;100874.31;10369625;28;20053;-66
2022/12/01 14:46:37;;;;;;;18.27;15.52;;;;;;;8.52;60.31;100871.53;10370307;28;20050;-61
2022/12/01 14:51:43;;;;;;;18.88;15.25;;;;;;;8.37;60.44;100877.78;10372474;28;20057;-61
2022/12/01 14:56:46;;;;;;;19.05;14.57;;;;;;;8.21;60.71;100877.84;10376181;28;20064;-62
2022/12/01 15:01:51;;;;;;;18.67;15.35;;;;;;;8.12;61.88;100871.28;10372001;28;20053;-61
2022/12/01 15:06:56;;;;;;;;;;;;;;;8.02;61.57;100863.06;10373207;28;20057;-60
2022/12/01 15:12:00;;;;;;;19.43;14.93;;;;;;;7.91;62.21;100865.47;10368944;28;19925;-62
2022/12/01 15:17:04;;;;;;;21.05;16.17;;;;;;;7.86;61.98;100867.56;10374333;28;20246;-61
2022/12/01 15:22:16;;;;;;;19.60;14.80;;;;;;;7.78;62.42;100866.22;10374611;28;20053;-61
2022/12/01 15:27:30;;;;;;;18.35;14.40;;;;;;;7.76;62.44;100867.25;10372118;28;20057;-61
2022/12/01 15:32:36;;;;;;;20.40;15.73;;;;;;;7.69;62.36;100865.91;10371794;28;20049;-61
2022/12/01 15:37:43;;;;;;;19.00;14.90;;;;;;;7.64;62.75;100874.13;10369661;28;20057;-62
2022/12/01 15:42:59;;;;;;;21.27;16.00;;;;;;;7.61;63.00;100869.00;10372456;28;20064;-61
2022/12/01 15:48:14;;;;;;;22.45;15.63;;;;;;;7.38;63.63;100871.19;10366861;28;20054;-61
2022/12/01 15:53:23;;;;;;;19.52;16.35;;;;;;;7.53;63.80;100873.91;10372171;28;20045;-65
2022/12/01 15:58:31;;;;;;;19.27;15.27;;;;;;;7.46;63.85;100875.19;10376679;28;20416;-60
2022/12/01 16:03:50;;;;;;;21.92;16.67;;;;;;;7.34;65.41;100871.44;10374758;28;20048;-61
2022/12/01 16:08:55;;;;;;;21.33;16.25;;;;;;;7.37;65.34;100876.56;10373576;28;20041;-60
2022/12/01 16:14:00;;;;;;;19.40;15.77;;;;;;;7.23;65.93;100874.72;10373407;28;20057;-60
2022/12/01 16:19:22;;;;;;;19.85;15.45;;;;;;;7.18;66.05;100871.47;10377275;28;20049;-61
2022/12/01 16:24:34;;;;;;;18.48;14.32;;;;;;;7.18;66.27;100876.78;10374591;28;20049;-60
2022/12/01 16:30:17;;;;;;;19.63;15.40;;;;;;;7.14;66.29;100880.53;10377683;28;20532;-61
2022/12/01 16:35:23;;;;;;;19.45;15.35;;;;;;;7.10;66.23;100879.84;10379480;28;20438;-60
2022/12/01 16:40:25;;;;;;;20.25;14.60;;;;;;;6.95;66.45;100873.63;10376325;28;20409;-60
2022/12/01 16:45:27;;;;;;;20.55;15.48;;;;;;;6.81;66.55;100855.00;10378826;28;20661;-60
2022/12/01 16:50:28;;;;;;;21.98;16.30;;;;;;;6.89;66.99;100893.34;10374292;28;20056;-65
2022/12/01 16:55:57;;;;;;;21.95;17.27;;;;;;;6.94;67.29;100895.72;10376133;28;20339;-60
2022/12/01 17:00:58;;;;;;;25.30;16.98;;;;;;;6.92;67.15;100897.63;10373558;28;20103;-60
2022/12/01 17:06:01;;;;;;;21.58;16.15;;;;;;;6.90;67.00;100891.53;10377384;28;20339;-60
2022/12/01 17:11:05;;;;;;;26.98;18.17;;;;;;;6.78;67.51;100873.69;10369252;28;20428;-60
2022/12/01 17:16:09;;;;;;;24.23;18.50;;;;;;;6.84;67.91;100874.19;10384153;28;20076;-60
2022/12/01 17:21:18;;;;;;;23.77;18.38;;;;;;;6.84;67.71;100883.94;10373177;28;20045;-60
2022/12/01 17:26:20;;;;;;;27.98;19.30;;;;;;;6.84;67.59;100883.94;10373117;28;20055;-60
2022/12/01 17:31:22;;;;;;;25.98;18.23;;;;;;;6.81;67.59;100884.09;10373134;28;20143;-61
2022/12/01 17:36:23;;;;;;;27.02;18.75;;;;;;;6.81;67.58;100882.28;10373452;28;20063;-60
2022/12/01 17:41:30;;;;;;;27.35;18.65;;;;;;;6.73;67.74;100872.13;10371944;28;22304;-61
2022/12/01 17:46:32;;;;;;;28.70;20.00;;;;;;;6.79;68.03;100878.88;10365862;28;20420;-61
2022/12/01 17:51:35;;;;;;;27.13;19.85;;;;;;;6.71;68.57;100881.09;10386152;28;20049;-62
2022/12/01 17:56:36;;;;;;;29.50;21.10;;;;;;;6.67;68.61;100877.75;10371281;28;22232;-63
2022/12/01 18:01:39;;;;;;;26.63;19.02;;;;;;;6.78;68.23;100885.13;10369789;28;20072;-60
2022/12/01 18:06:41;;;;;;;26.50;19.35;;;;;;;6.74;68.50;100888.88;10362382;28;20050;-61
2022/12/01 18:11:43;;;;;;;28.45;19.88;;;;;;;6.76;68.02;100892.28;10364640;28;20061;-62
2022/12/01 18:16:44;;;;;;;30.02;20.40;;;;;;;6.70;68.54;100889.97;10365724;28;20049;-61
2022/12/01 18:21:46;;;;;;;26.83;19.38;;;;;;;6.59;68.87;100880.00;10370741;28;20645;-61
2022/12/01 18:26:47;;;;;;;28.63;19.88;;;;;;;6.67;68.87;100888.34;10371205;28;20120;-61
2022/12/01 18:31:48;;;;;;;28.23;21.10;;;;;;;6.44;69.32;100891.34;10370429;28;20071;-61
2022/12/01 18:36:50;;;;;;;23.60;18.27;;;;;;;6.53;69.36;100902.31;10370844;28;20053;-60
2022/12/01 18:41:51;;;;;;;25.85;19.10;;;;;;;6.52;69.68;100899.75;10367555;28;20063;-61
2022/12/01 18:46:53;;;;;;;26.70;19.38;;;;;;;6.50;69.68;100885.75;10365966;28;20251;-61
2022/12/01 18:51:54;;;;;;;24.77;19.67;;;;;;;6.59;69.78;100895.84;10372460;28;20044;-61
2022/12/01 18:56:57;;;;;;;29.45;20.27;;;;;;;6.68;69.46;100883.91;10364454;28;20472;-60
2022/12/01 19:01:59;;;;;;;27.00;18.50;;;;;;;6.76;69.17;100887.00;10369076;28;20059;-60
2022/12/01 19:07:00;;;;;;;26.73;19.30;;;;;;;6.70;69.08;100867.00;10370170;28;20048;-61
2022/12/01 19:12:01;;;;;;;26.00;20.33;;;;;;;6.65;69.05;100882.28;10369782;28;20486;-60
2022/12/01 19:17:03;;;;;;;27.20;19.27;;;;;;;6.63;69.43;100868.28;10366376;28;20065;-61
2022/12/01 19:22:04;;;;;;;28.48;20.88;;;;;;;6.67;69.37;100859.25;10370804;28;20515;-60
2022/12/01 19:27:06;;;;;;;30.67;21.60;;;;;;;6.64;69.73;100867.34;10371173;28;20251;-60
2022/12/01 19:32:07;;;;;;;27.83;19.73;;;;;;;6.60;70.02;100875.53;10372492;28;20053;-63
2022/12/01 19:37:09;;;;;;;28.02;20.15;;;;;;;6.53;70.15;100869.72;10379238;28;20060;-60
2022/12/01 19:42:11;;;;;;;29.75;21.20;;;;;;;6.63;69.93;100878.00;10378883;28;20052;-60
2022/12/01 19:47:12;;;;;;;29.10;20.63;;;;;;;6.62;70.53;100856.00;10380735;28;20515;-61
2022/12/01 19:52:19;;;;;;;29.65;20.60;;;;;;;6.71;69.69;100874.03;10381971;28;20085;-59
2022/12/01 19:57:20;;;;;;;28.58;20.23;;;;;;;6.69;69.89;100870.59;10385170;28;20137;-61
2022/12/01 20:02:22;;;;;;;27.92;20.65;;;;;;;6.56;70.04;100859.00;10377377;28;20057;-59
2022/12/01 20:07:29;;;;;;;27.75;19.40;;;;;;;6.66;69.73;100868.09;10376829;28;20041;-60
2022/12/01 20:12:32;;;;;;;29.85;21.17;;;;;;;6.70;69.73;100874.94;10380099;28;20045;-60
2022/12/01 20:17:35;;;;;;;30.85;20.73;;;;;;;6.73;70.21;100868.66;10374250;28;20049;-59
2022/12/01 20:22:36;;;;;;;27.25;19.90;;;;;;;6.78;70.25;100861.28;10378287;28;20456;-60
2022/12/01 20:27:38;;;;;;;29.20;20.52;;;;;;;6.73;69.44;100861.56;10379981;28;20049;-60
2022/12/01 20:32:39;;;;;;;27.45;19.70;;;;;;;6.68;69.78;100863.59;10377844;28;20526;-60
2022/12/01 20:37:41;;;;;;;28.00;20.67;;;;;;;6.67;69.86;100867.19;10375613;28;20045;-60
2022/12/01 20:42:42;;;;;;;27.08;21.00;;;;;;;6.62;69.60;100853.38;10378069;28;20644;-61
2022/12/01 20:47:43;;;;;;;29.45;20.88;;;;;;;6.60;70.14;100860.50;10377559;28;20045;-62
2022/12/01 20:52:45;;;;;;;32.70;21.88;;;;;;;6.68;69.76;100862.72;10378057;28;20052;-59
2022/12/01 20:57:46;;;;;;;30.55;22.20;;;;;;;6.67;69.56;100858.41;10377313;28;20064;-60
2022/12/01 21:02:48;;;;;;;28.35;19.35;;;;;;;6.70;69.90;100840.56;10381252;28;20045;-61
2022/12/01 21:07:49;;;;;;;28.77;21.63;;;;;;;6.61;69.70;100850.81;10380863;28;20166;-61
2022/12/01 21:18:23;;;;;;;31.20;20.33;;;;;;;6.66;69.95;100854.88;10367594;28;20045;-62
2022/12/01 21:23:26;;;;;;;29.48;21.33;;;;;;;6.56;70.18;100861.63;10378735;28;20049;-61
2022/12/01 21:28:28;;;;;;;29.60;20.20;;;;;;;6.41;70.33;100844.81;10377965;28;20057;-62
2022/12/01 21:33:32;;;;;;;26.52;19.98;;;;;;;6.53;70.24;100859.13;10373815;28;20044;-61
2022/12/01 21:38:33;;;;;;;32.38;21.77;;;;;;;6.50;70.08;100856.66;10376645;28;20477;-60
2022/12/01 21:43:34;;;;;;;29.70;20.08;;;;;;;6.55;70.22;100863.41;10376696;28;20607;-60
2022/12/01 21:48:39;;;;;;;31.70;20.83;;;;;;;6.41;69.85;100842.16;10369530;28;20053;-61
2022/12/01 21:53:40;;;;;;;28.70;19.55;;;;;;;6.53;69.91;100864.41;10378967;28;20053;-61
2022/12/01 21:58:42;;;;;;;26.33;19.75;;;;;;;6.52;69.37;100854.78;10383789;28;20049;-61
2022/12/01 22:03:45;;;;;;;32.22;20.52;;;;;;;6.48;68.88;100851.44;10388697;28;20061;-61
2022/12/01 22:08:49;;;;;;;26.38;19.80;;;;;;;6.42;69.39;100856.22;10387961;28;20423;-62
2022/12/01 22:13:50;;;;;;;27.33;20.15;;;;;;;6.43;69.34;100847.34;10387900;28;20049;-59
2022/12/01 22:18:54;;;;;;;30.13;19.33;;;;;;;6.25;69.60;100850.03;10388915;28;20048;-62
2022/12/01 22:24:07;;;;;;;28.90;18.63;;;;;;;6.33;69.89;100853.13;10385304;28;20060;-61
2022/12/01 22:29:34;;;;;;;26.25;19.67;;;;;;;6.13;69.76;100818.97;10387172;28;20063;-62
2022/12/01 22:34:36;;;;;;;31.30;19.70;;;;;;;6.38;69.31;100850.25;10386236;28;20045;-62
2022/12/01 22:39:39;;;;;;;28.23;19.50;;;;;;;6.36;69.06;100847.69;10389950;28;20051;-61
2022/12/01 22:44:43;;;;;;;26.33;18.48;;;;;;;6.19;69.90;100830.06;10384782;28;20382;-61
2022/12/01 22:49:45;;;;;;;28.70;19.15;;;;;;;6.25;69.82;100839.47;10390454;28;20507;-61
2022/12/01 22:54:48;;;;;;;24.95;17.85;;;;;;;6.26;69.78;100838.53;10383733;28;20049;-61
2022/12/01 22:59:51;;;;;;;28.17;19.47;;;;;;;6.17;69.69;100821.38;10382397;28;20392;-62
2022/12/01 23:04:57;;;;;;;26.50;17.88;;;;;;;6.08;70.02;100810.41;10384087;28;20060;-62
2022/12/01 23:10:16;;;;;;;27.00;19.00;;;;;;;6.23;70.20;100829.91;10388635;28;20041;-61
2022/12/01 23:15:36;;;;;;;25.48;18.23;;;;;;;6.09;69.92;100806.84;10380236;28;20050;-62
2022/12/01 23:20:39;;;;;;;27.63;18.40;;;;;;;6.10;70.51;100804.13;10389435;28;20049;-61